createdAt,value
2018-01-21T00:00:25.761Z,2.36
2018-01-21T00:01:25.751Z,2.33
2018-01-21T00:02:25.748Z,2.24
2018-01-21T00:03:25.733Z,2.39
2018-01-21T00:04:25.719Z,2.36
2018-01-21T00:05:25.707Z,2.43
2018-01-21T00:06:25.694Z,2.33
2018-01-21T00:07:25.676Z,2.36
2018-01-21T00:08:25.667Z,2.36
2018-01-21T00:09:25.666Z,2.32
2018-01-21T00:10:25.646Z,2.33
2018-01-21T00:11:25.638Z,2.46
2018-01-21T00:12:25.630Z,2.38
2018-01-21T00:13:25.615Z,2.53
2018-01-21T00:14:25.610Z,2.47
2018-01-21T00:15:25.593Z,2.42
2018-01-21T00:16:25.590Z,2.50
2018-01-21T00:17:25.566Z,2.42
2018-01-21T00:18:25.553Z,2.47
2018-01-21T00:19:25.536Z,2.49
2018-01-21T00:20:25.525Z,2.46
2018-01-21T00:21:25.514Z,2.49
2018-01-21T00:22:25.498Z,2.42
2018-01-21T00:23:25.488Z,2.47
2018-01-21T00:24:25.504Z,2.54
2018-01-21T00:25:25.490Z,2.47
2018-01-21T00:26:25.514Z,2.51
2018-01-21T00:27:25.450Z,2.49
2018-01-21T00:28:25.426Z,2.51
2018-01-21T00:29:25.420Z,2.53
2018-01-21T00:30:25.402Z,2.49
2018-01-21T00:31:25.394Z,2.54
2018-01-21T00:32:25.377Z,2.53
2018-01-21T00:33:25.368Z,2.53
2018-01-21T00:34:25.355Z,2.49
2018-01-21T00:35:25.344Z,2.49
2018-01-21T00:36:25.330Z,2.42
2018-01-21T00:37:25.321Z,2.50
2018-01-21T00:38:25.311Z,2.49
2018-01-21T00:39:25.294Z,2.49
2018-01-21T00:40:25.284Z,2.53
2018-01-21T00:41:25.274Z,2.53
2018-01-21T00:42:25.256Z,2.49
2018-01-21T00:43:25.246Z,2.47
2018-01-21T00:44:25.232Z,2.49
2018-01-21T00:45:25.218Z,2.50
2018-01-21T00:46:25.210Z,2.50
2018-01-21T00:47:25.196Z,2.49
2018-01-21T00:48:25.182Z,2.54
2018-01-21T00:49:25.183Z,2.39
2018-01-21T00:50:25.159Z,2.51
2018-01-21T00:51:25.146Z,2.50
2018-01-21T00:52:25.136Z,2.42
2018-01-21T00:53:25.126Z,2.50
2018-01-21T00:54:25.114Z,2.60
2018-01-21T00:55:25.176Z,2.51
2018-01-21T00:56:25.090Z,2.56
2018-01-21T00:57:25.078Z,2.50
2018-01-21T00:58:25.067Z,2.51
2018-01-21T00:59:25.054Z,2.53
2018-01-21T01:00:25.041Z,2.54
2018-01-21T01:01:25.025Z,2.50
2018-01-21T01:02:25.018Z,2.53
2018-01-21T01:03:25.021Z,2.49
2018-01-21T01:04:25.008Z,2.51
2018-01-21T01:05:24.985Z,2.51
2018-01-21T01:06:24.968Z,2.53
2018-01-21T01:07:24.969Z,2.50
2018-01-21T01:08:24.943Z,2.47
2018-01-21T01:09:24.948Z,2.51
2018-01-21T01:10:24.943Z,2.49
2018-01-21T01:11:24.906Z,2.57
2018-01-21T01:12:24.895Z,2.53
2018-01-21T01:13:24.884Z,2.50
2018-01-21T01:14:24.909Z,2.56
2018-01-21T01:15:24.855Z,2.57
2018-01-21T01:16:24.847Z,2.54
2018-01-21T01:17:24.840Z,2.44
2018-01-21T01:18:24.832Z,2.53
2018-01-21T01:19:24.810Z,2.57
2018-01-21T01:20:24.800Z,2.60
2018-01-21T01:21:24.788Z,2.57
2018-01-21T01:22:24.773Z,2.60
2018-01-21T01:23:24.769Z,2.57
2018-01-21T01:24:24.755Z,2.56
2018-01-21T01:25:24.750Z,2.64
2018-01-21T01:26:24.785Z,2.56
2018-01-21T01:27:24.730Z,2.65
2018-01-21T01:28:24.704Z,2.62
2018-01-21T01:29:24.691Z,2.56
2018-01-21T01:30:24.678Z,2.57
2018-01-21T01:31:24.665Z,2.50
2018-01-21T01:32:24.655Z,2.56
2018-01-21T01:33:24.639Z,2.60
2018-01-21T01:34:24.628Z,2.56
2018-01-21T01:35:24.616Z,2.54
2018-01-21T01:36:24.604Z,2.60
2018-01-21T01:37:24.595Z,2.53
2018-01-21T01:38:24.577Z,2.57
2018-01-21T01:39:24.569Z,2.54
2018-01-21T01:40:24.557Z,2.56
2018-01-21T01:41:24.547Z,2.57
2018-01-21T01:42:24.535Z,2.60
2018-01-21T01:43:24.526Z,2.57
2018-01-21T01:44:24.510Z,2.54
2018-01-21T01:45:24.499Z,2.60
2018-01-21T01:46:24.478Z,2.53
2018-01-21T01:47:24.470Z,2.65
2018-01-21T01:48:24.460Z,2.67
2018-01-21T01:49:24.442Z,2.65
2018-01-21T01:50:24.434Z,2.67
2018-01-21T01:51:24.419Z,2.68
2018-01-21T01:52:24.406Z,2.71
2018-01-21T01:53:24.433Z,2.75
2018-01-21T01:54:24.401Z,2.62
2018-01-21T01:55:24.379Z,2.69
2018-01-21T01:56:24.387Z,2.62
2018-01-21T01:57:24.352Z,2.68
2018-01-21T01:58:24.333Z,2.67
2018-01-21T01:59:24.327Z,2.69
2018-01-21T02:00:24.315Z,2.69
2018-01-21T02:01:24.299Z,2.80
2018-01-21T02:02:24.288Z,2.69
2018-01-21T02:03:24.279Z,2.71
2018-01-21T02:04:24.262Z,2.85
2018-01-21T02:05:24.249Z,2.80
2018-01-21T02:06:24.266Z,2.69
2018-01-21T02:07:24.226Z,2.79
2018-01-21T02:08:24.217Z,2.77
2018-01-21T02:09:24.206Z,2.74
2018-01-21T02:10:24.189Z,2.77
2018-01-21T02:11:24.178Z,2.75
2018-01-21T02:12:24.166Z,2.75
2018-01-21T02:13:24.157Z,2.75
2018-01-21T02:14:24.160Z,2.69
2018-01-21T02:15:24.149Z,2.74
2018-01-21T02:16:24.118Z,2.79
2018-01-21T02:17:24.108Z,2.74
2018-01-21T02:18:24.093Z,2.72
2018-01-21T02:19:24.084Z,2.74
2018-01-21T02:20:24.078Z,2.83
2018-01-21T02:21:24.076Z,2.77
2018-01-21T02:22:24.050Z,2.77
2018-01-21T02:23:24.032Z,2.85
2018-01-21T02:24:24.020Z,2.77
2018-01-21T02:25:24.010Z,2.74
2018-01-21T02:26:23.998Z,2.77
2018-01-21T02:27:23.985Z,2.80
2018-01-21T02:28:23.972Z,2.74
2018-01-21T02:29:23.962Z,2.85
2018-01-21T02:30:23.946Z,2.79
2018-01-21T02:31:23.938Z,2.80
2018-01-21T02:32:23.928Z,2.77
2018-01-21T02:33:23.917Z,2.86
2018-01-21T02:34:23.901Z,2.80
2018-01-21T02:35:23.886Z,2.79
2018-01-21T02:36:23.883Z,2.71
2018-01-21T02:37:23.866Z,2.72
2018-01-21T02:38:23.848Z,2.65
2018-01-21T02:39:23.842Z,2.69
2018-01-21T02:40:23.833Z,2.72
2018-01-21T02:41:23.819Z,2.69
2018-01-21T02:42:23.802Z,2.68
2018-01-21T02:43:23.788Z,2.67
2018-01-21T02:44:23.779Z,2.68
2018-01-21T02:45:23.771Z,2.65
2018-01-21T02:46:23.775Z,2.67
2018-01-21T02:47:23.749Z,2.65
2018-01-21T02:48:23.755Z,2.62
2018-01-21T02:49:23.718Z,2.56
2018-01-21T02:50:23.713Z,2.57
2018-01-21T02:51:23.702Z,2.56
2018-01-21T02:52:23.683Z,2.53
2018-01-21T02:53:23.669Z,2.51
2018-01-21T02:54:23.661Z,2.38
2018-01-21T02:55:23.646Z,2.49
2018-01-21T02:56:23.636Z,2.49
2018-01-21T02:57:23.620Z,2.39
2018-01-21T02:58:23.610Z,2.38
2018-01-21T02:59:23.645Z,2.31
2018-01-21T03:00:23.588Z,2.33
2018-01-21T03:01:23.573Z,2.26
2018-01-21T03:02:23.560Z,2.25
2018-01-21T03:03:23.546Z,2.28
2018-01-21T03:04:23.534Z,2.22
2018-01-21T03:05:23.562Z,2.20
2018-01-21T03:06:23.517Z,2.15
2018-01-21T03:07:23.528Z,2.13
2018-01-21T03:08:23.535Z,2.14
2018-01-21T03:09:23.519Z,2.07
2018-01-21T03:10:23.470Z,2.15
2018-01-21T03:11:23.446Z,2.10
2018-01-21T03:12:23.430Z,2.08
2018-01-21T03:13:23.431Z,2.14
2018-01-21T03:14:23.423Z,2.10
2018-01-21T03:15:23.416Z,1.95
2018-01-21T03:16:23.385Z,2.02
2018-01-21T03:17:23.373Z,1.99
2018-01-21T03:18:23.388Z,1.95
2018-01-21T03:19:23.349Z,1.95
2018-01-21T03:20:23.372Z,1.99
2018-01-21T03:21:23.323Z,1.92
2018-01-21T03:22:23.311Z,1.95
2018-01-21T03:23:23.301Z,1.81
2018-01-21T03:24:23.282Z,1.87
2018-01-21T03:25:23.272Z,1.77
2018-01-21T03:26:23.261Z,1.84
2018-01-21T03:27:23.248Z,1.81
2018-01-21T03:28:23.233Z,1.81
2018-01-21T03:29:23.227Z,1.77
2018-01-21T03:30:23.210Z,1.67
2018-01-21T03:31:23.198Z,1.84
2018-01-21T03:32:23.188Z,1.71
2018-01-21T03:33:23.171Z,1.73
2018-01-21T03:34:23.158Z,1.67
2018-01-21T03:35:23.149Z,1.77
2018-01-21T03:36:23.132Z,1.74
2018-01-21T03:37:23.122Z,1.74
2018-01-21T03:38:23.105Z,1.66
2018-01-21T03:39:23.099Z,1.67
2018-01-21T03:40:23.084Z,1.70
2018-01-21T03:41:23.067Z,1.76
2018-01-21T03:42:23.053Z,1.74
2018-01-21T03:43:23.072Z,1.77
2018-01-21T03:44:23.034Z,1.68
2018-01-21T03:45:23.023Z,1.70
2018-01-21T03:46:23.007Z,1.76
2018-01-21T03:47:23.062Z,1.70
2018-01-21T03:48:23.028Z,1.76
2018-01-21T03:49:22.966Z,1.71
2018-01-21T03:50:22.953Z,1.78
2018-01-21T03:51:22.940Z,1.81
2018-01-21T03:52:22.945Z,1.77
2018-01-21T03:53:22.918Z,1.78
2018-01-21T03:54:22.905Z,1.68
2018-01-21T03:55:22.891Z,1.76
2018-01-21T03:56:22.877Z,1.76
2018-01-21T03:57:22.876Z,1.77
2018-01-21T03:58:22.889Z,1.77
2018-01-21T03:59:22.892Z,1.76
2018-01-21T04:00:22.941Z,1.67
2018-01-21T04:01:22.814Z,1.74
2018-01-21T04:02:22.799Z,1.78
2018-01-21T04:03:22.794Z,1.71
2018-01-21T04:04:22.776Z,1.66
2018-01-21T04:05:22.766Z,1.60
2018-01-21T04:06:22.778Z,1.73
2018-01-21T04:07:22.742Z,1.62
2018-01-21T04:08:22.726Z,1.55
2018-01-21T04:09:22.734Z,1.58
2018-01-21T04:10:22.702Z,1.63
2018-01-21T04:11:22.689Z,1.60
2018-01-21T04:12:22.688Z,1.60
2018-01-21T04:13:22.658Z,1.55
2018-01-21T04:14:22.644Z,1.58
2018-01-21T04:15:22.652Z,1.55
2018-01-21T04:16:22.645Z,1.52
2018-01-21T04:17:22.640Z,1.42
2018-01-21T04:18:22.626Z,1.48
2018-01-21T04:19:22.578Z,1.40
2018-01-21T04:20:22.579Z,1.40
2018-01-21T04:21:22.553Z,1.41
2018-01-21T04:22:22.544Z,1.41
2018-01-21T04:23:22.531Z,1.40
2018-01-21T04:24:22.516Z,1.42
2018-01-21T04:25:22.506Z,1.42
2018-01-21T04:26:22.506Z,1.41
2018-01-21T04:27:22.479Z,1.40
2018-01-21T04:28:22.464Z,1.45
2018-01-21T04:29:22.452Z,1.35
2018-01-21T04:30:22.440Z,1.26
2018-01-21T04:31:22.466Z,1.34
2018-01-21T04:32:22.418Z,1.34
2018-01-21T04:33:22.402Z,1.28
2018-01-21T04:34:22.389Z,1.31
2018-01-21T04:35:22.372Z,1.35
2018-01-21T04:36:22.375Z,1.26
2018-01-21T04:37:22.353Z,1.20
2018-01-21T04:38:22.337Z,1.16
2018-01-21T04:39:22.316Z,1.19
2018-01-21T04:40:22.307Z,1.16
2018-01-21T04:41:22.299Z,1.17
2018-01-21T04:42:22.282Z,1.19
2018-01-21T04:43:22.265Z,1.17
2018-01-21T04:44:22.255Z,1.08
2018-01-21T04:45:22.237Z,1.17
2018-01-21T04:46:22.234Z,1.13
2018-01-21T04:47:22.212Z,1.10
2018-01-21T04:48:22.203Z,1.12
2018-01-21T04:49:22.202Z,1.17
2018-01-21T04:51:56.397Z,1.08
2018-01-21T04:52:56.290Z,1.12
2018-01-21T04:54:50.030Z,1.13
2018-01-21T04:55:50.010Z,1.02
2018-01-21T04:57:43.639Z,1.04
2018-01-21T04:58:43.613Z,1.04
2018-01-21T04:59:43.602Z,1.06
2018-01-21T05:00:43.590Z,0.92
2018-01-21T05:01:43.574Z,1.01
2018-01-21T05:02:43.561Z,0.95
2018-01-21T05:03:43.548Z,0.99
2018-01-21T05:04:43.535Z,0.96
2018-01-21T05:05:43.517Z,0.91
2018-01-21T05:06:43.508Z,0.92
2018-01-21T05:07:43.498Z,0.94
2018-01-21T05:08:43.478Z,0.99
2018-01-21T05:09:43.470Z,0.95
2018-01-21T05:10:43.454Z,1.08
2018-01-21T05:11:43.441Z,1.04
2018-01-21T05:12:43.428Z,1.04
2018-01-21T05:13:43.412Z,0.96
2018-01-21T05:14:43.405Z,1.01
2018-01-21T05:15:43.387Z,1.01
2018-01-21T05:16:43.374Z,0.98
2018-01-21T05:17:43.361Z,1.05
2018-01-21T05:18:43.346Z,1.01
2018-01-21T05:19:43.332Z,0.99
2018-01-21T05:20:43.322Z,1.01
2018-01-21T05:21:43.309Z,1.04
2018-01-21T05:22:43.297Z,1.04
2018-01-21T05:23:43.279Z,0.98
2018-01-21T05:24:43.267Z,0.99
2018-01-21T05:25:43.255Z,0.95
2018-01-21T05:26:43.243Z,0.99
2018-01-21T05:27:43.230Z,1.01
2018-01-21T05:28:43.213Z,0.92
2018-01-21T05:29:43.202Z,0.94
2018-01-21T05:30:43.196Z,0.95
2018-01-21T05:31:43.175Z,0.92
2018-01-21T05:32:43.157Z,0.96
2018-01-21T05:33:43.142Z,0.94
2018-01-21T05:34:43.134Z,0.98
2018-01-21T05:35:43.124Z,0.92
2018-01-21T05:36:43.122Z,0.96
2018-01-21T05:37:43.092Z,0.96
2018-01-21T05:38:43.080Z,0.96
2018-01-21T05:39:43.064Z,1.02
2018-01-21T05:40:43.055Z,0.99
2018-01-21T05:41:43.104Z,0.96
2018-01-21T05:42:43.024Z,0.95
2018-01-21T05:43:43.014Z,0.94
2018-01-21T05:44:43.000Z,0.95
2018-01-21T05:45:42.992Z,1.01
2018-01-21T05:46:42.970Z,0.94
2018-01-21T05:47:42.958Z,0.88
2018-01-21T05:48:42.945Z,0.88
2018-01-21T05:49:42.933Z,0.87
2018-01-21T05:50:42.917Z,0.86
2018-01-21T05:51:42.912Z,0.94
2018-01-21T05:52:42.891Z,0.84
2018-01-21T05:53:42.876Z,0.81
2018-01-21T05:54:42.866Z,0.87
2018-01-21T05:55:42.850Z,0.83
2018-01-21T05:56:42.841Z,0.88
2018-01-21T05:57:42.825Z,0.87
2018-01-21T05:58:42.815Z,0.78
2018-01-21T05:59:42.800Z,0.80
2018-01-21T06:00:42.785Z,0.83
2018-01-21T06:01:42.772Z,0.84
2018-01-21T06:02:42.756Z,0.77
2018-01-21T06:03:42.764Z,0.88
2018-01-21T06:04:42.755Z,0.87
2018-01-21T06:05:42.717Z,0.78
2018-01-21T06:06:42.706Z,0.80
2018-01-21T06:07:42.690Z,0.80
2018-01-21T06:08:42.676Z,0.77
2018-01-21T06:09:42.663Z,0.87
2018-01-21T06:10:42.662Z,0.80
2018-01-21T06:11:42.644Z,0.81
2018-01-21T06:12:42.621Z,0.73
2018-01-21T06:13:42.608Z,0.88
2018-01-21T06:14:42.594Z,0.81
2018-01-21T06:15:42.580Z,0.80
2018-01-21T06:16:42.582Z,0.83
2018-01-21T06:17:42.562Z,0.83
2018-01-21T06:18:42.550Z,0.83
2018-01-21T06:19:42.527Z,0.83
2018-01-21T06:20:42.548Z,0.84
2018-01-21T06:21:42.520Z,0.87
2018-01-21T06:22:42.520Z,0.86
2018-01-21T06:23:42.518Z,0.91
2018-01-21T06:24:42.488Z,0.94
2018-01-21T06:25:42.458Z,0.99
2018-01-21T06:26:42.435Z,0.95
2018-01-21T06:27:42.435Z,0.92
2018-01-21T06:28:42.418Z,0.94
2018-01-21T06:29:42.399Z,1.01
2018-01-21T06:30:42.390Z,0.92
2018-01-21T06:31:42.385Z,1.02
2018-01-21T06:32:42.362Z,1.02
2018-01-21T06:33:42.360Z,1.01
2018-01-21T06:34:42.326Z,1.04
2018-01-21T06:35:42.312Z,0.96
2018-01-21T06:36:42.329Z,1.02
2018-01-21T06:37:42.327Z,1.04
2018-01-21T06:38:42.284Z,1.06
2018-01-21T06:39:42.261Z,0.94
2018-01-21T06:40:42.247Z,1.05
2018-01-21T06:41:42.237Z,0.96
2018-01-21T06:42:42.244Z,1.04
2018-01-21T06:43:42.208Z,1.02
2018-01-21T06:44:42.197Z,0.96
2018-01-21T06:45:42.183Z,1.08
2018-01-21T06:46:42.165Z,0.95
2018-01-21T06:47:42.155Z,0.99
2018-01-21T06:48:42.141Z,1.08
2018-01-21T06:49:42.131Z,0.94
2018-01-21T06:50:42.112Z,0.95
2018-01-21T06:51:42.101Z,1.01
2018-01-21T06:52:42.087Z,1.05
2018-01-21T06:53:42.073Z,1.02
2018-01-21T06:54:42.065Z,1.01
2018-01-21T06:55:42.042Z,0.92
2018-01-21T06:56:42.028Z,1.04
2018-01-21T06:57:42.018Z,0.96
2018-01-21T06:58:42.007Z,1.04
2018-01-21T06:59:41.996Z,0.99
2018-01-21T07:00:41.977Z,0.96
2018-01-21T07:01:41.973Z,1.01
2018-01-21T07:02:41.959Z,1.08
2018-01-21T07:03:41.967Z,1.19
2018-01-21T07:04:41.943Z,1.13
2018-01-21T07:05:41.909Z,1.16
2018-01-21T07:06:41.904Z,1.19
2018-01-21T07:07:41.885Z,1.10
2018-01-21T07:08:41.880Z,1.17
2018-01-21T07:09:41.868Z,1.01
2018-01-21T07:10:41.845Z,0.98
2018-01-21T07:11:41.851Z,0.98
2018-01-21T07:12:41.832Z,1.01
2018-01-21T07:13:41.816Z,1.06
2018-01-21T07:14:41.798Z,1.13
2018-01-21T07:15:41.777Z,1.22
2018-01-21T07:16:41.762Z,1.12
2018-01-21T07:17:41.757Z,1.05
2018-01-21T07:18:41.749Z,1.08
2018-01-21T07:19:41.726Z,1.13
2018-01-21T07:20:41.716Z,1.08
2018-01-21T07:21:41.698Z,1.14
2018-01-21T07:22:41.683Z,1.12
2018-01-21T07:23:41.677Z,1.12
2018-01-21T07:24:41.660Z,1.14
2018-01-21T07:25:41.649Z,1.10
2018-01-21T07:26:41.633Z,1.14
2018-01-21T07:27:41.620Z,1.17
2018-01-21T07:28:41.607Z,1.13
2018-01-21T07:29:41.591Z,1.13
2018-01-21T07:30:41.584Z,1.10
2018-01-21T07:31:41.565Z,1.12
2018-01-21T07:32:41.560Z,1.13
2018-01-21T07:33:41.552Z,1.12
2018-01-21T07:34:41.529Z,1.12
2018-01-21T07:35:41.520Z,1.14
2018-01-21T07:36:41.499Z,1.17
2018-01-21T07:37:41.494Z,1.17
2018-01-21T07:38:41.475Z,1.05
2018-01-21T07:39:41.465Z,1.14
2018-01-21T07:40:41.449Z,1.13
2018-01-21T07:41:41.438Z,1.13
2018-01-21T07:42:41.421Z,1.02
2018-01-21T07:43:41.410Z,1.17
2018-01-21T07:44:41.413Z,1.19
2018-01-21T07:45:41.383Z,1.13
2018-01-21T07:46:41.370Z,1.19
2018-01-21T07:47:41.356Z,1.19
2018-01-21T07:48:41.343Z,1.17
2018-01-21T07:49:41.332Z,1.20
2018-01-21T07:50:41.315Z,1.19
2018-01-21T07:51:41.302Z,1.20
2018-01-21T07:52:41.301Z,1.14
2018-01-21T07:53:41.305Z,1.30
2018-01-21T07:54:41.270Z,1.23
2018-01-21T07:55:41.262Z,1.24
2018-01-21T07:56:41.240Z,1.23
2018-01-21T07:57:41.260Z,1.31
2018-01-21T07:58:41.215Z,1.23
2018-01-21T07:59:41.224Z,1.34
2018-01-21T08:00:41.198Z,1.34
2018-01-21T08:01:41.176Z,1.30
2018-01-21T08:02:41.165Z,1.34
2018-01-21T08:03:41.146Z,1.40
2018-01-21T08:04:41.140Z,1.41
2018-01-21T08:05:41.126Z,1.41
2018-01-21T08:06:41.114Z,1.44
2018-01-21T08:07:41.097Z,1.44
2018-01-21T08:08:41.086Z,1.44
2018-01-21T08:09:41.080Z,1.42
2018-01-21T08:10:41.063Z,1.50
2018-01-21T08:11:41.045Z,1.58
2018-01-21T08:12:41.045Z,1.56
2018-01-21T08:13:41.050Z,1.44
2018-01-21T08:14:41.017Z,1.42
2018-01-21T08:15:40.997Z,1.53
2018-01-21T08:16:40.987Z,1.42
2018-01-21T08:17:40.975Z,1.56
2018-01-21T08:18:40.962Z,1.58
2018-01-21T08:19:40.948Z,1.56
2018-01-21T08:20:40.939Z,1.60
2018-01-21T08:21:40.924Z,1.55
2018-01-21T08:22:40.911Z,1.55
2018-01-21T08:23:40.897Z,1.60
2018-01-21T08:24:40.884Z,1.62
2018-01-21T08:25:40.873Z,1.59
2018-01-21T08:26:40.864Z,1.66
2018-01-21T08:27:40.842Z,1.58
2018-01-21T08:28:40.838Z,1.62
2018-01-21T08:29:40.818Z,1.63
2018-01-21T08:30:40.806Z,1.52
2018-01-21T08:31:40.799Z,1.59
2018-01-21T08:32:40.785Z,1.56
2018-01-21T08:33:40.773Z,1.60
2018-01-21T08:34:40.758Z,1.60
2018-01-21T08:35:40.745Z,1.66
2018-01-21T08:36:40.734Z,1.66
2018-01-21T08:37:40.721Z,1.66
2018-01-21T08:38:40.718Z,1.58
2018-01-21T08:39:40.704Z,1.66
2018-01-21T08:40:40.684Z,1.60
2018-01-21T08:41:40.672Z,1.74
2018-01-21T08:42:40.663Z,1.74
2018-01-21T08:43:40.648Z,1.67
2018-01-21T08:44:40.632Z,1.67
2018-01-21T08:45:40.625Z,1.74
2018-01-21T08:46:40.643Z,1.74
2018-01-21T08:47:40.623Z,1.73
2018-01-21T08:48:40.588Z,1.70
2018-01-21T08:49:40.581Z,1.68
2018-01-21T08:50:40.565Z,1.68
2018-01-21T08:51:40.548Z,1.60
2018-01-21T08:52:40.541Z,1.67
2018-01-21T08:53:40.541Z,1.66
2018-01-21T08:54:40.525Z,1.73
2018-01-21T08:55:40.498Z,1.70
2018-01-21T08:56:40.485Z,1.62
2018-01-21T08:57:40.483Z,1.74
2018-01-21T08:58:40.465Z,1.74
2018-01-21T08:59:40.450Z,1.76
2018-01-21T09:00:40.447Z,1.68
2018-01-21T09:01:40.436Z,1.68
2018-01-21T09:02:40.417Z,1.71
2018-01-21T09:03:40.397Z,1.76
2018-01-21T09:04:40.390Z,1.77
2018-01-21T09:05:40.377Z,1.84
2018-01-21T09:06:40.362Z,1.91
2018-01-21T09:07:40.350Z,1.97
2018-01-21T09:08:40.353Z,1.94
2018-01-21T09:09:40.324Z,1.94
2018-01-21T09:10:40.312Z,2.02
2018-01-21T09:11:40.304Z,2.08
2018-01-21T09:12:40.292Z,2.11
2018-01-21T09:13:40.292Z,2.10
2018-01-21T09:14:40.268Z,2.06
2018-01-21T09:15:40.255Z,1.99
2018-01-21T09:16:40.243Z,2.08
2018-01-21T09:17:40.228Z,2.06
2018-01-21T09:18:40.222Z,2.02
2018-01-21T09:19:40.229Z,2.07
2018-01-21T09:20:40.205Z,2.08
2018-01-21T09:21:40.191Z,2.15
2018-01-21T09:22:40.171Z,2.18
2018-01-21T09:23:40.156Z,2.18
2018-01-21T09:24:40.150Z,2.32
2018-01-21T09:25:40.131Z,2.18
2018-01-21T09:26:40.136Z,2.18
2018-01-21T09:27:40.116Z,2.28
2018-01-21T09:28:40.112Z,2.20
2018-01-21T09:29:40.100Z,2.22
2018-01-21T09:30:40.075Z,2.18
2018-01-21T09:31:40.062Z,2.32
2018-01-21T09:32:40.049Z,2.36
2018-01-21T09:33:40.046Z,2.32
2018-01-21T09:34:40.047Z,2.50
2018-01-21T09:35:40.015Z,2.42
2018-01-21T09:36:40.009Z,2.43
2018-01-21T09:37:39.993Z,2.38
2018-01-21T09:38:39.977Z,2.33
2018-01-21T09:39:39.968Z,2.42
2018-01-21T09:40:39.963Z,2.47
2018-01-21T09:41:39.941Z,2.49
2018-01-21T09:42:39.929Z,2.51
2018-01-21T09:43:39.915Z,2.50
2018-01-21T09:44:39.905Z,2.61
2018-01-21T09:45:39.892Z,2.54
2018-01-21T09:46:39.883Z,2.67
2018-01-21T09:47:39.876Z,2.62
2018-01-21T09:48:39.858Z,2.65
2018-01-21T09:49:39.849Z,2.71
2018-01-21T09:50:39.836Z,2.72
2018-01-21T09:51:39.834Z,2.64
2018-01-21T09:52:39.811Z,2.71
2018-01-21T09:53:39.801Z,2.57
2018-01-21T09:54:39.792Z,2.65
2018-01-21T09:55:39.776Z,2.72
2018-01-21T09:56:39.767Z,2.72
2018-01-21T09:57:39.753Z,2.71
2018-01-21T09:58:39.787Z,2.68
2018-01-21T09:59:39.762Z,2.71
2018-01-21T10:00:39.734Z,2.71
2018-01-21T10:01:39.712Z,2.69
2018-01-21T10:02:39.703Z,2.64
2018-01-21T10:03:39.690Z,2.71
2018-01-21T10:04:39.676Z,2.74
2018-01-21T10:05:39.660Z,2.80
2018-01-21T10:06:39.661Z,2.89
2018-01-21T10:07:39.702Z,2.95
2018-01-21T10:08:39.642Z,3.10
2018-01-21T10:09:39.630Z,3.19
2018-01-21T10:10:39.614Z,3.32
2018-01-21T10:11:39.597Z,3.56
2018-01-21T10:12:39.582Z,3.62
2018-01-21T10:13:39.581Z,3.77
2018-01-21T10:14:39.580Z,3.87
2018-01-21T10:15:39.577Z,3.86
2018-01-21T10:16:39.561Z,3.87
2018-01-21T10:17:39.576Z,3.94
2018-01-21T10:18:39.528Z,3.81
2018-01-21T10:19:39.524Z,3.73
2018-01-21T10:20:39.508Z,3.87
2018-01-21T10:21:39.493Z,4.06
2018-01-21T10:22:39.487Z,4.17
2018-01-21T10:23:39.475Z,4.37
2018-01-21T10:24:39.467Z,4.41
2018-01-21T10:25:39.452Z,4.55
2018-01-21T10:26:39.446Z,4.66
2018-01-21T10:27:39.457Z,4.60
2018-01-21T10:28:39.431Z,4.78
2018-01-21T10:29:39.418Z,4.78
2018-01-21T10:30:39.413Z,4.86
2018-01-21T10:31:39.406Z,4.82
2018-01-21T10:32:39.422Z,4.80
2018-01-21T10:33:39.410Z,4.70
2018-01-21T10:34:39.392Z,4.67
2018-01-21T10:35:39.373Z,4.58
2018-01-21T10:36:39.358Z,4.45
2018-01-21T10:37:39.363Z,4.31
2018-01-21T10:38:39.340Z,4.31
2018-01-21T10:39:39.334Z,4.23
2018-01-21T10:40:39.325Z,4.23
2018-01-21T10:41:39.450Z,4.22
2018-01-21T10:42:39.301Z,4.24
2018-01-21T10:43:39.312Z,4.20
2018-01-21T10:44:39.335Z,4.17
2018-01-21T10:45:39.352Z,4.22
2018-01-21T10:46:39.316Z,4.17
2018-01-21T10:47:39.268Z,4.16
2018-01-21T10:48:39.256Z,4.13
2018-01-21T10:49:39.236Z,4.17
2018-01-21T10:50:39.232Z,4.17
2018-01-21T10:51:39.217Z,4.17
2018-01-21T10:52:39.211Z,4.23
2018-01-21T10:53:39.241Z,4.16
2018-01-21T10:54:39.212Z,4.19
2018-01-21T10:55:39.218Z,4.20
2018-01-21T10:56:39.167Z,4.22
2018-01-21T10:57:39.166Z,4.19
2018-01-21T10:58:39.179Z,4.17
2018-01-21T10:59:39.133Z,4.23
2018-01-21T11:00:39.128Z,4.12
2018-01-21T11:01:39.123Z,4.19
2018-01-21T11:02:39.109Z,4.16
2018-01-21T11:03:39.097Z,4.14
2018-01-21T11:04:39.094Z,4.19
2018-01-21T11:05:39.077Z,4.08
2018-01-21T11:06:39.068Z,4.20
2018-01-21T11:07:39.079Z,4.12
2018-01-21T11:08:39.070Z,4.14
2018-01-21T11:09:39.066Z,4.19
2018-01-21T11:10:39.036Z,4.13
2018-01-21T11:11:39.027Z,4.12
2018-01-21T11:12:39.012Z,4.14
2018-01-21T11:13:39.152Z,4.13
2018-01-21T11:14:38.984Z,4.13
2018-01-21T11:15:38.981Z,4.16
2018-01-21T11:16:38.958Z,4.20
2018-01-21T11:17:38.954Z,4.20
2018-01-21T11:18:38.956Z,4.19
2018-01-21T11:19:38.929Z,4.13
2018-01-21T11:20:38.924Z,4.14
2018-01-21T11:21:38.909Z,4.14
2018-01-21T11:22:38.919Z,4.20
2018-01-21T11:23:38.913Z,4.19
2018-01-21T11:24:38.886Z,4.26
2018-01-21T11:25:38.869Z,4.23
2018-01-21T11:26:38.873Z,4.23
2018-01-21T11:27:38.869Z,4.23
2018-01-21T11:28:38.839Z,4.28
2018-01-21T11:29:38.827Z,4.30
2018-01-21T11:30:38.823Z,4.34
2018-01-21T11:31:38.807Z,4.24
2018-01-21T11:32:38.801Z,4.35
2018-01-21T11:33:38.783Z,4.34
2018-01-21T11:34:38.782Z,4.38
2018-01-21T11:35:38.796Z,4.44
2018-01-21T11:36:38.771Z,4.45
2018-01-21T11:37:38.741Z,4.45
2018-01-21T11:38:38.750Z,4.40
2018-01-21T11:39:38.723Z,4.44
2018-01-21T11:40:38.745Z,4.44
2018-01-21T11:41:38.719Z,4.44
2018-01-21T11:42:38.735Z,4.41
2018-01-21T11:43:38.687Z,4.38
2018-01-21T11:44:38.669Z,4.42
2018-01-21T11:45:38.658Z,4.40
2018-01-21T11:46:38.652Z,4.40
2018-01-21T11:47:38.643Z,4.42
2018-01-21T11:48:38.630Z,4.38
2018-01-21T11:49:38.731Z,4.44
2018-01-21T11:50:38.613Z,4.49
2018-01-21T11:51:38.596Z,4.52
2018-01-21T11:52:38.596Z,4.42
2018-01-21T11:53:38.579Z,4.42
2018-01-21T11:54:38.570Z,4.42
2018-01-21T11:55:38.591Z,4.41
2018-01-21T11:56:38.548Z,4.42
2018-01-21T11:57:38.539Z,4.50
2018-01-21T11:58:38.531Z,4.48
2018-01-21T11:59:38.546Z,4.45
2018-01-21T12:00:38.507Z,4.44
2018-01-21T12:01:38.546Z,4.41
2018-01-21T12:02:38.520Z,4.40
2018-01-21T12:03:38.515Z,4.23
2018-01-21T12:04:38.528Z,4.30
2018-01-21T12:05:38.502Z,4.30
2018-01-21T12:06:38.459Z,4.28
2018-01-21T12:07:38.476Z,4.23
2018-01-21T12:08:38.473Z,4.34
2018-01-21T12:09:38.433Z,4.28
2018-01-21T12:10:38.407Z,4.28
2018-01-21T12:11:38.398Z,4.34
2018-01-21T12:12:38.413Z,4.41
2018-01-21T12:13:38.382Z,4.42
2018-01-21T12:14:38.404Z,4.38
2018-01-21T12:15:38.364Z,4.45
2018-01-21T12:16:38.359Z,4.45
2018-01-21T12:17:38.349Z,4.48
2018-01-21T12:18:38.394Z,4.48
2018-01-21T12:19:38.310Z,4.37
2018-01-21T12:20:38.327Z,4.48
2018-01-21T12:21:38.364Z,4.48
2018-01-21T12:22:38.315Z,4.42
2018-01-21T12:23:38.290Z,4.45
2018-01-21T12:24:38.308Z,4.48
2018-01-21T12:25:38.263Z,4.42
2018-01-21T12:26:38.299Z,4.41
2018-01-21T12:27:38.222Z,4.48
2018-01-21T12:28:38.216Z,4.40
2018-01-21T12:29:38.221Z,4.49
2018-01-21T12:30:38.202Z,4.45
2018-01-21T12:31:38.184Z,4.41
2018-01-21T12:32:38.180Z,4.42
2018-01-21T12:33:38.162Z,4.48
2018-01-21T12:34:38.154Z,4.49
2018-01-21T12:35:38.162Z,4.42
2018-01-21T12:36:38.129Z,4.56
2018-01-21T12:37:38.120Z,4.52
2018-01-21T12:38:38.140Z,4.55
2018-01-21T12:39:38.160Z,4.60
2018-01-21T12:40:38.104Z,4.55
2018-01-21T12:41:38.083Z,4.56
2018-01-21T12:42:38.075Z,4.52
2018-01-21T12:43:38.057Z,4.60
2018-01-21T12:44:38.083Z,4.59
2018-01-21T12:45:38.033Z,4.63
2018-01-21T12:46:38.025Z,4.55
2018-01-21T12:47:38.021Z,4.55
2018-01-21T12:48:38.054Z,4.53
2018-01-21T12:49:37.996Z,4.55
2018-01-21T12:50:38.004Z,4.59
2018-01-21T12:51:37.979Z,4.53
2018-01-21T12:52:37.993Z,4.50
2018-01-21T12:53:37.978Z,4.48
2018-01-21T12:54:37.956Z,4.44
2018-01-21T12:55:37.930Z,4.50
2018-01-21T12:56:37.925Z,4.42
2018-01-21T12:57:37.922Z,4.35
2018-01-21T12:58:37.923Z,4.32
2018-01-21T12:59:37.911Z,4.31
2018-01-21T13:00:37.885Z,4.28
2018-01-21T13:01:37.905Z,4.22
2018-01-21T13:02:37.898Z,4.34
2018-01-21T13:03:37.872Z,4.34
2018-01-21T13:04:37.845Z,4.30
2018-01-21T13:05:37.829Z,4.20
2018-01-21T13:06:37.816Z,4.26
2018-01-21T13:07:37.809Z,4.38
2018-01-21T13:08:37.794Z,4.38
2018-01-21T13:09:37.788Z,4.42
2018-01-21T13:10:37.782Z,4.50
2018-01-21T13:11:37.761Z,4.49
2018-01-21T13:12:37.750Z,4.49
2018-01-21T13:13:37.755Z,4.53
2018-01-21T13:14:37.769Z,4.56
2018-01-21T13:15:37.740Z,4.62
2018-01-21T13:16:37.729Z,4.66
2018-01-21T13:17:37.705Z,4.66
2018-01-21T13:18:37.691Z,4.75
2018-01-21T13:19:37.712Z,4.73
2018-01-21T13:20:37.674Z,4.75
2018-01-21T13:21:37.757Z,4.78